Terminal Aerodrome Forecast
Issued by NWS Paducah, KY

Home | Current Version | Previous Version | Text Only | Print | Product List | Glossary On
Versions: 1 2 3 4 5 6 7 8 9 10 11 12 13 14
000
FTUS43 KPAH 040520
TAFEVV
TAF
KEVV 040520Z 0406/0506 00000KT 6SM HZ SKC
     FM040700 00000KT 5SM BR SKC
      TEMPO 0410/0412 2SM BR
     FM041300 00000KT P6SM SKC
     FM041630 VRB04KT P6SM FEW050
     FM050000 VRB02KT P6SM SKC=

USA.gov is the U.S. government's official web portal to all federal, state and local government web resources and services.